Time;durP1;ratioP1;P1;durP2;ratioP2;P2;SDS_P1;SDS_P2;PMS_P1;PMS_P2;Temp;Humidity;BMP_temperature;BMP_pressure;BME280_temperature;BME280_humidity;BME280_pressure;Samples;Min_cycle;Max_cycle;Signal;HPM_P1;HPM_P2
2023/11/02 00:02:03;;;;;;;0.50;0.20;;;18.00;76.40;;;;;;5065120;28;20140;-84
2023/11/02 00:04:29;;;;;;;0.50;0.30;;;18.00;76.40;;;;;;5061397;28;20091;-84
2023/11/02 00:06:55;;;;;;;0.57;0.20;;;18.00;76.30;;;;;;5064923;28;20064;-84
2023/11/02 00:09:27;;;;;;;0.82;0.30;;;18.00;76.60;;;;;;5097462;27;20036;-84
2023/11/02 00:12:02;;;;;;;1.00;0.40;;;18.00;76.40;;;;;;5066472;28;20127;-83
2023/11/02 00:14:42;;;;;;;0.57;0.43;;;18.00;75.70;;;;;;5064500;28;20036;-84
2023/11/02 00:17:36;;;;;;;1.05;0.50;;;18.00;76.40;;;;;;5063274;28;20509;-83
2023/11/02 00:20:04;;;;;;;0.93;0.50;;;18.00;76.30;;;;;;5074110;28;20064;-83
2023/11/02 00:22:30;;;;;;;1.75;1.00;;;18.00;76.30;;;;;;5075787;28;20048;-83
2023/11/02 00:25:00;;;;;;;1.00;0.90;;;18.00;76.10;;;;;;5066247;28;20520;-84
2023/11/02 00:27:26;;;;;;;0.73;0.40;;;18.00;76.10;;;;;;5048285;28;20055;-83
2023/11/02 00:29:52;;;;;;;0.85;0.60;;;18.00;76.20;;;;;;5067589;28;20040;-84
2023/11/02 00:32:19;;;;;;;0.80;0.45;;;18.00;76.20;;;;;;5060296;28;20025;-84
2023/11/02 00:34:45;;;;;;;1.70;0.65;;;18.00;76.10;;;;;;5066737;28;20406;-84
2023/11/02 00:37:11;;;;;;;1.15;0.68;;;18.00;76.10;;;;;;5078854;28;20539;-82
2023/11/02 00:39:38;;;;;;;1.30;0.65;;;18.00;76.10;;;;;;5047466;28;20048;-84
2023/11/02 00:42:04;;;;;;;1.73;0.57;;;18.00;76.00;;;;;;5065095;28;20094;-84
2023/11/02 00:44:29;;;;;;;1.10;0.63;;;18.00;76.10;;;;;;5063901;28;20036;-84
2023/11/02 00:46:55;;;;;;;1.45;0.60;;;18.00;76.00;;;;;;5062265;28;20032;-85
2023/11/02 00:49:22;;;;;;;1.30;0.70;;;18.00;76.00;;;;;;5060705;28;20491;-83
2023/11/02 00:51:57;;;;;;;1.75;0.55;;;18.00;76.00;;;;;;5054034;28;20120;-84
2023/11/02 00:55:01;;;;;;;1.27;0.77;;;18.00;75.90;;;;;;5065473;28;20448;-85
2023/11/02 00:57:28;;;;;;;2.08;0.57;;;18.00;75.90;;;;;;5080348;28;20592;-84
2023/11/02 00:59:58;;;;;;;0.93;0.38;;;18.00;75.90;;;;;;5059646;28;20064;-85
2023/11/02 01:02:23;;;;;;;1.55;0.57;;;18.00;75.80;;;;;;5061460;28;20060;-85
2023/11/02 01:04:54;;;;;;;1.38;0.68;;;18.00;76.60;;;;;;5062316;28;20490;-86
2023/11/02 01:07:19;;;;;;;0.85;0.70;;;18.00;75.60;;;;;;5061388;28;20498;-84
2023/11/02 01:09:50;;;;;;;1.65;0.90;;;18.00;75.50;;;;;;5064976;28;20055;-84
2023/11/02 01:12:25;;;;;;;1.38;0.68;;;18.00;75.50;;;;;;5064432;28;20036;-84
2023/11/02 01:14:51;;;;;;;1.30;0.80;;;18.00;75.60;;;;;;5061674;28;20552;-82
2023/11/02 01:17:42;;;;;;;1.20;0.60;;;18.00;75.60;;;;;;5062640;28;20051;-84
2023/11/02 01:20:12;;;;;;;0.88;0.43;;;18.00;75.50;;;;;;5062353;28;20036;-83
2023/11/02 01:22:54;;;;;;;1.83;0.70;;;18.00;75.40;;;;;;5056597;28;20040;-85
2023/11/02 01:25:22;;;;;;;1.90;0.68;;;18.00;75.50;;;;;;5061434;28;20426;-84
2023/11/02 01:27:47;;;;;;;1.08;0.60;;;17.90;75.40;;;;;;5064767;28;20048;-84
2023/11/02 01:30:22;;;;;;;0.73;0.50;;;18.00;75.50;;;;;;5067439;28;20044;-84
2023/11/02 01:32:47;;;;;;;1.33;0.75;;;17.90;75.40;;;;;;5063841;28;20540;-84
2023/11/02 01:35:31;;;;;;;1.42;0.65;;;18.00;75.60;;;;;;5064484;28;20045;-83
2023/11/02 01:37:56;;;;;;;1.48;0.50;;;17.90;75.40;;;;;;5062045;28;20036;-82
2023/11/02 01:40:49;;;;;;;2.33;0.82;;;18.00;75.50;;;;;;5059456;28;20132;-84
2023/11/02 01:43:15;;;;;;;1.52;0.68;;;17.90;76.10;;;;;;5061395;28;20027;-84
2023/11/02 01:45:41;;;;;;;1.02;0.60;;;18.00;75.40;;;;;;5098810;27;20047;-85
2023/11/02 01:48:18;;;;;;;1.80;0.90;;;18.00;75.30;;;;;;5068493;28;20094;-84
2023/11/02 01:50:52;;;;;;;1.20;0.98;;;17.90;75.30;;;;;;5062257;28;20098;-84
2023/11/02 01:53:51;;;;;;;1.10;0.90;;;17.90;75.40;;;;;;5034349;28;20095;-84
2023/11/02 01:56:29;;;;;;;1.10;0.60;;;18.00;75.30;;;;;;5056172;28;20098;-84
2023/11/02 01:59:13;;;;;;;1.35;0.70;;;17.90;75.30;;;;;;5062688;28;20068;-84
2023/11/02 02:01:42;;;;;;;2.27;0.80;;;17.90;75.30;;;;;;5053893;28;20098;-84
2023/11/02 02:04:30;;;;;;;0.98;0.60;;;17.90;75.30;;;;;;5063360;28;20094;-84
2023/11/02 02:07:04;;;;;;;1.02;0.60;;;17.90;75.30;;;;;;5060990;28;20040;-86
2023/11/02 02:09:35;;;;;;;2.08;1.02;;;17.90;75.20;;;;;;5064769;28;20150;-87
2023/11/02 02:12:20;;;;;;;1.58;0.57;;;17.90;75.10;;;;;;5064152;28;20871;-85
2023/11/02 02:15:11;;;;;;;1.08;0.57;;;17.90;75.00;;;;;;5065607;28;20068;-85
2023/11/02 02:18:12;;;;;;;1.42;0.70;;;17.90;75.00;;;;;;5061940;28;20048;-84
2023/11/02 02:20:38;;;;;;;0.98;0.70;;;17.90;75.10;;;;;;5060118;28;20414;-86
2023/11/02 02:23:10;;;;;;;2.15;1.02;;;17.90;75.00;;;;;;5042472;28;20047;-85
2023/11/02 02:25:44;;;;;;;1.52;0.77;;;17.90;75.10;;;;;;5053784;28;20098;-86
2023/11/02 02:28:17;;;;;;;;;;;17.90;75.00;;;;;;5061878;28;20040;-86
2023/11/02 02:30:52;;;;;;;0.63;0.60;;;17.90;74.90;;;;;;5062124;28;19928;-86
2023/11/02 02:33:20;;;;;;;1.65;0.50;;;17.90;75.10;;;;;;5090017;28;20135;-85
2023/11/02 02:35:58;;;;;;;0.70;0.50;;;17.90;75.10;;;;;;5065130;28;20036;-86
2023/11/02 02:38:30;;;;;;;1.20;0.90;;;17.90;76.10;;;;;;5061499;28;20140;-85
2023/11/02 02:40:59;;;;;;;2.13;0.82;;;17.90;75.00;;;;;;5060930;28;20076;-86
2023/11/02 02:43:25;;;;;;;1.60;0.60;;;17.90;75.10;;;;;;5055627;28;20078;-86
2023/11/02 02:45:51;;;;;;;0.82;0.60;;;17.90;74.90;;;;;;5033656;28;20044;-85
2023/11/02 02:48:16;;;;;;;1.77;0.60;;;17.90;75.10;;;;;;5045541;28;20043;-84
2023/11/02 02:50:42;;;;;;;2.03;0.90;;;17.90;74.90;;;;;;5045371;28;20090;-86
2023/11/02 02:53:09;;;;;;;1.15;0.57;;;17.90;75.00;;;;;;5059865;28;20115;-85
2023/11/02 02:55:34;;;;;;;1.38;1.05;;;17.90;75.00;;;;;;5062656;28;20040;-85
2023/11/02 02:58:01;;;;;;;1.45;0.82;;;17.90;74.90;;;;;;5076791;28;20052;-87
2023/11/02 03:00:30;;;;;;;1.42;0.77;;;17.90;75.30;;;;;;5064013;28;20096;-86
2023/11/02 03:02:57;;;;;;;1.63;0.60;;;17.90;75.20;;;;;;5046157;28;20059;-86
2023/11/02 03:05:24;;;;;;;0.70;0.60;;;17.90;75.10;;;;;;5061180;28;20082;-86
2023/11/02 03:07:53;;;;;;;1.20;0.63;;;17.90;75.00;;;;;;5062583;28;20033;-85
2023/11/02 03:10:19;;;;;;;1.92;0.82;;;17.90;75.00;;;;;;5076359;28;20025;-85
2023/11/02 03:12:46;;;;;;;1.35;0.63;;;17.90;75.40;;;;;;5050238;28;20386;-85
2023/11/02 03:15:13;;;;;;;1.60;0.95;;;17.90;75.30;;;;;;5078496;28;20035;-86
2023/11/02 03:18:02;;;;;;;1.58;0.95;;;17.90;75.00;;;;;;5062129;28;20049;-85
2023/11/02 03:20:28;;;;;;;1.27;0.88;;;17.90;75.20;;;;;;5058521;28;20088;-86
2023/11/02 03:23:17;;;;;;;0.82;0.63;;;17.90;75.40;;;;;;5061310;28;20135;-86
2023/11/02 03:25:51;;;;;;;1.05;0.70;;;17.90;76.10;;;;;;5062217;28;20041;-86
2023/11/02 03:28:17;;;;;;;0.98;0.63;;;17.90;75.10;;;;;;5056554;28;20033;-85
2023/11/02 03:30:48;;;;;;;1.95;1.33;;;17.90;75.30;;;;;;5069248;28;20055;-85
2023/11/02 03:33:27;;;;;;;1.20;0.68;;;17.90;75.30;;;;;;5096415;28;20036;-86
2023/11/02 03:35:59;;;;;;;2.05;1.08;;;17.90;75.20;;;;;;5059872;28;20044;-85
2023/11/02 03:38:48;;;;;;;1.95;0.90;;;17.90;75.10;;;;;;5062009;28;20032;-85
2023/11/02 03:41:20;;;;;;;2.35;0.98;;;17.90;75.10;;;;;;4998493;28;20142;-85
2023/11/02 03:44:01;;;;;;;1.60;1.00;;;17.90;75.20;;;;;;4990781;28;20030;-85
2023/11/02 03:46:38;;;;;;;2.13;0.85;;;17.90;75.40;;;;;;5003030;28;20538;-84
2023/11/02 03:49:10;;;;;;;3.60;1.25;;;17.90;75.30;;;;;;4992088;28;20096;-85
2023/11/02 03:51:57;;;;;;;1.73;0.77;;;17.90;75.30;;;;;;5006526;28;20036;-85
2023/11/02 03:54:41;;;;;;;2.60;0.82;;;17.90;75.20;;;;;;5001651;28;20128;-83
2023/11/02 03:57:31;;;;;;;1.38;0.85;;;17.90;75.10;;;;;;5005315;28;20117;-85
2023/11/02 04:00:12;;;;;;;1.80;0.70;;;17.90;75.20;;;;;;5001756;28;20582;-85
2023/11/02 04:02:47;;;;;;;1.10;0.80;;;17.90;75.20;;;;;;5002399;28;20640;-85
2023/11/02 04:05:20;;;;;;;1.13;0.80;;;17.90;75.10;;;;;;5003097;28;20053;-86
2023/11/02 04:08:09;;;;;;;1.38;0.73;;;17.90;75.10;;;;;;5001339;28;20558;-86
2023/11/02 04:10:35;;;;;;;1.17;0.52;;;17.90;75.00;;;;;;4992790;28;20627;-85
2023/11/02 04:13:07;;;;;;;0.80;0.50;;;17.90;75.00;;;;;;5004953;28;20061;-86
2023/11/02 04:15:32;;;;;;;1.45;1.00;;;17.90;76.00;;;;;;4989980;28;20064;-86
2023/11/02 04:17:58;;;;;;;1.70;0.80;;;17.90;75.80;;;;;;5023394;28;20045;-86
2023/11/02 04:20:25;;;;;;;0.93;0.68;;;17.90;75.00;;;;;;5062845;28;20561;-86
2023/11/02 04:22:50;;;;;;;0.88;0.70;;;17.90;75.90;;;;;;5064539;28;20052;-86
2023/11/02 04:25:16;;;;;;;1.25;0.80;;;17.90;75.20;;;;;;5062300;28;20029;-86
2023/11/02 04:27:42;;;;;;;1.33;0.80;;;17.90;76.00;;;;;;5083161;28;20048;-87
2023/11/02 04:30:08;;;;;;;2.38;0.70;;;17.90;75.10;;;;;;5076204;28;20044;-86
2023/11/02 04:32:33;;;;;;;1.00;0.73;;;17.90;75.00;;;;;;5063697;28;20040;-85
2023/11/02 04:34:59;;;;;;;1.40;0.63;;;17.90;75.00;;;;;;5061986;28;20047;-86
2023/11/02 04:37:25;;;;;;;1.27;0.85;;;17.90;74.60;;;;;;5065938;28;20101;-85
2023/11/02 04:39:50;;;;;;;1.58;0.60;;;17.90;74.70;;;;;;5095821;28;20064;-86
2023/11/02 04:42:17;;;;;;;1.27;0.60;;;17.90;74.70;;;;;;5067206;28;20561;-86
2023/11/02 04:44:43;;;;;;;1.40;0.93;;;17.90;74.90;;;;;;5062070;28;20067;-86
2023/11/02 04:47:08;;;;;;;1.42;0.60;;;17.90;75.00;;;;;;5063315;28;20561;-85
2023/11/02 04:49:34;;;;;;;2.20;0.88;;;17.90;75.00;;;;;;5061350;28;20044;-84
2023/11/02 04:52:02;;;;;;;1.33;0.63;;;17.90;75.10;;;;;;5065032;28;20076;-85
2023/11/02 04:54:28;;;;;;;2.05;0.73;;;17.90;74.80;;;;;;5065354;28;20045;-84
2023/11/02 04:56:54;;;;;;;0.75;0.55;;;17.90;74.80;;;;;;5063800;28;20076;-86
2023/11/02 04:59:19;;;;;;;0.88;0.57;;;17.90;75.00;;;;;;5064183;28;20532;-86
2023/11/02 05:01:46;;;;;;;1.65;0.77;;;17.90;75.00;;;;;;5064918;28;20049;-86
2023/11/02 05:04:12;;;;;;;0.52;0.50;;;17.90;76.00;;;;;;5063440;28;20070;-86
2023/11/02 05:06:38;;;;;;;0.55;0.45;;;17.90;75.10;;;;;;5068028;28;20037;-86
2023/11/02 05:09:05;;;;;;;1.02;0.77;;;17.90;75.00;;;;;;5063813;28;20059;-86
2023/11/02 05:11:31;;;;;;;0.65;0.65;;;17.90;75.20;;;;;;5069517;28;20520;-84
2023/11/02 05:13:56;;;;;;;2.55;1.20;;;18.00;75.40;;;;;;5063913;28;20040;-84
2023/11/02 05:16:22;;;;;;;1.20;0.63;;;18.00;75.40;;;;;;5065295;28;20045;-83
2023/11/02 05:18:47;;;;;;;0.90;0.60;;;18.00;75.10;;;;;;5063913;28;20048;-84
2023/11/02 05:21:13;;;;;;;1.45;0.50;;;18.00;75.40;;;;;;5065846;28;20086;-84
2023/11/02 05:23:38;;;;;;;0.90;0.50;;;18.00;76.00;;;;;;5064304;28;20090;-84
2023/11/02 05:26:04;;;;;;;0.70;0.60;;;18.00;75.40;;;;;;5062417;28;20510;-84
2023/11/02 05:28:31;;;;;;;0.90;0.70;;;18.00;75.30;;;;;;5061865;28;20052;-84
2023/11/02 05:30:57;;;;;;;0.95;0.75;;;18.00;75.50;;;;;;5064552;28;20040;-84
2023/11/02 05:33:22;;;;;;;1.10;0.63;;;18.00;75.30;;;;;;5065580;28;20040;-84
2023/11/02 05:35:49;;;;;;;0.95;0.52;;;18.00;75.50;;;;;;5063736;28;20036;-83
2023/11/02 05:38:15;;;;;;;0.90;0.57;;;18.00;76.10;;;;;;5060401;28;20036;-84
2023/11/02 05:40:43;;;;;;;0.90;0.60;;;17.90;75.30;;;;;;5061411;28;20053;-84
2023/11/02 05:43:08;;;;;;;0.63;0.63;;;17.90;75.10;;;;;;5081047;28;20044;-84
2023/11/02 05:45:34;;;;;;;1.83;0.80;;;18.00;75.30;;;;;;5066582;28;20324;-84
2023/11/02 05:48:00;;;;;;;1.95;0.95;;;18.00;75.40;;;;;;5058580;28;20121;-84
2023/11/02 05:50:26;;;;;;;1.45;0.63;;;18.00;75.60;;;;;;5074277;28;20098;-83
2023/11/02 05:52:52;;;;;;;0.73;0.68;;;17.90;75.30;;;;;;5061584;28;20055;-84
2023/11/02 05:55:18;;;;;;;0.93;0.60;;;17.90;76.20;;;;;;5064919;28;20584;-83
2023/11/02 05:57:43;;;;;;;0.75;0.55;;;17.90;75.10;;;;;;5068203;28;20468;-83
2023/11/02 06:00:10;;;;;;;1.15;0.80;;;17.90;75.40;;;;;;5064692;28;20097;-83
2023/11/02 06:02:37;;;;;;;3.00;0.80;;;18.00;75.40;;;;;;5062971;28;20529;-83
2023/11/02 06:05:04;;;;;;;0.93;0.55;;;17.90;75.30;;;;;;5063492;28;20045;-84
2023/11/02 06:07:30;;;;;;;2.47;1.02;;;18.00;74.90;;;;;;5066715;28;23688;-83
2023/11/02 06:09:56;;;;;;;0.70;0.70;;;17.90;74.80;;;;;;5065438;28;20071;-84
2023/11/02 06:12:23;;;;;;;0.80;0.50;;;17.90;75.00;;;;;;5065110;28;20119;-83
2023/11/02 06:14:49;;;;;;;0.63;0.40;;;17.90;75.00;;;;;;5060686;28;20063;-83
2023/11/02 06:17:15;;;;;;;2.38;0.90;;;17.90;75.30;;;;;;5060094;28;21057;-81
2023/11/02 06:19:40;;;;;;;0.97;0.60;;;17.90;75.10;;;;;;4693019;28;10000797;-83
2023/11/02 06:22:06;;;;;;;0.60;0.50;;;17.90;75.30;;;;;;5055728;28;20407;-80
2023/11/02 06:24:31;;;;;;;1.45;0.50;;;18.00;75.20;;;;;;5062858;28;20479;-80
2023/11/02 06:26:57;;;;;;;0.75;0.70;;;17.90;75.30;;;;;;5057806;28;20048;-81
2023/11/02 06:29:22;;;;;;;1.35;0.73;;;17.90;75.10;;;;;;5057571;28;20056;-81
2023/11/02 06:31:48;;;;;;;0.75;0.57;;;17.90;74.70;;;;;;5074117;28;20510;-82
2023/11/02 06:34:17;;;;;;;0.95;0.60;;;17.90;75.70;;;;;;5042322;28;20541;-81
2023/11/02 06:36:42;;;;;;;0.90;0.55;;;17.90;75.10;;;;;;5060842;28;20044;-82
2023/11/02 06:39:08;;;;;;;0.70;0.52;;;17.90;75.00;;;;;;5061304;28;20052;-83
2023/11/02 06:41:33;;;;;;;0.57;0.40;;;17.90;74.90;;;;;;5059382;28;20036;-83
2023/11/02 06:43:59;;;;;;;0.65;0.50;;;17.90;74.90;;;;;;5058551;28;20135;-80
2023/11/02 06:46:25;;;;;;;0.63;0.63;;;17.90;75.10;;;;;;5059354;28;20048;-82
2023/11/02 06:48:50;;;;;;;0.68;0.50;;;17.90;74.80;;;;;;5039086;28;20072;-83
2023/11/02 06:51:16;;;;;;;0.82;0.40;;;17.90;74.60;;;;;;5060761;28;20044;-81
2023/11/02 06:53:41;;;;;;;0.70;0.50;;;18.00;75.10;;;;;;5041608;28;20036;-81
2023/11/02 06:56:08;;;;;;;1.10;0.55;;;17.90;75.10;;;;;;5059908;28;20432;-80
2023/11/02 06:58:33;;;;;;;0.70;0.50;;;18.00;74.80;;;;;;5043776;28;20052;-80
2023/11/02 07:01:00;;;;;;;0.57;0.40;;;18.00;74.80;;;;;;5059723;28;20055;-81
2023/11/02 07:03:27;;;;;;;0.68;0.40;;;18.00;74.80;;;;;;5062350;28;20044;-81
2023/11/02 07:05:52;;;;;;;1.00;0.47;;;18.00;74.90;;;;;;5061528;28;20047;-82
2023/11/02 07:08:18;;;;;;;0.73;0.40;;;18.00;74.80;;;;;;5060230;28;20045;-82
2023/11/02 07:10:43;;;;;;;0.77;0.52;;;17.90;74.80;;;;;;5060730;28;20425;-81
2023/11/02 07:13:11;;;;;;;1.75;0.77;;;18.00;74.70;;;;;;5061260;28;20044;-83
2023/11/02 07:15:37;;;;;;;0.63;0.55;;;17.90;74.80;;;;;;5057323;28;20049;-81
2023/11/02 07:18:03;;;;;;;0.52;0.30;;;17.90;74.60;;;;;;5042192;28;20418;-83
2023/11/02 07:20:29;;;;;;;0.88;0.50;;;18.00;74.70;;;;;;5058551;28;20045;-80
2023/11/02 07:22:55;;;;;;;1.77;0.60;;;17.90;74.60;;;;;;5059630;28;20111;-81
2023/11/02 07:25:21;;;;;;;0.75;0.47;;;18.00;75.10;;;;;;5059516;28;20037;-81
2023/11/02 07:27:47;;;;;;;0.60;0.30;;;18.00;74.90;;;;;;5059143;28;20483;-81
2023/11/02 07:30:14;;;;;;;2.40;1.05;;;18.00;74.70;;;;;;5044945;28;20485;-81
2023/11/02 07:32:43;;;;;;;1.73;0.40;;;18.00;74.60;;;;;;5059686;28;20131;-81
2023/11/02 07:35:09;;;;;;;0.70;0.50;;;18.00;74.80;;;;;;5058778;28;20387;-82
2023/11/02 07:37:35;;;;;;;0.63;0.40;;;18.00;74.60;;;;;;5059770;28;20051;-82
2023/11/02 07:40:00;;;;;;;1.02;0.50;;;18.00;74.80;;;;;;5043084;28;20117;-82
2023/11/02 07:42:26;;;;;;;0.60;0.45;;;18.00;75.00;;;;;;5057099;28;20045;-82
2023/11/02 07:44:52;;;;;;;0.60;0.57;;;18.00;75.00;;;;;;5057066;28;20194;-81
2023/11/02 07:47:17;;;;;;;0.55;0.30;;;18.00;75.00;;;;;;5042901;28;20027;-81
2023/11/02 07:49:43;;;;;;;0.40;0.30;;;18.00;74.90;;;;;;5089652;28;20123;-83
2023/11/02 07:52:08;;;;;;;0.50;0.50;;;18.00;74.40;;;;;;5089929;28;20037;-82
2023/11/02 07:54:37;;;;;;;0.60;0.50;;;18.00;75.00;;;;;;5057320;28;20036;-78
2023/11/02 07:57:09;;;;;;;0.47;0.40;;;18.00;74.90;;;;;;5043447;28;20041;-78
2023/11/02 07:59:35;;;;;;;2.33;0.40;;;18.00;74.60;;;;;;5057600;28;20040;-78
2023/11/02 08:02:02;;;;;;;2.33;0.77;;;18.00;74.60;;;;;;5060497;28;20028;-78
2023/11/02 08:04:27;;;;;;;2.03;0.50;;;18.00;74.60;;;;;;5060789;28;20499;-79
2023/11/02 08:06:53;;;;;;;0.85;0.40;;;18.00;74.60;;;;;;5063189;28;20145;-78
2023/11/02 08:09:18;;;;;;;1.23;0.50;;;18.00;74.60;;;;;;5062245;28;20028;-79
2023/11/02 08:11:44;;;;;;;0.68;0.40;;;18.00;74.70;;;;;;5064056;28;20048;-79
2023/11/02 08:14:10;;;;;;;1.27;0.88;;;18.00;74.70;;;;;;5066214;28;20091;-79
2023/11/02 08:16:35;;;;;;;0.50;0.30;;;18.00;74.50;;;;;;5062208;28;20755;-78
2023/11/02 08:19:01;;;;;;;0.30;0.28;;;18.00;74.50;;;;;;5065523;28;20567;-79
2023/11/02 08:21:27;;;;;;;0.40;0.22;;;18.00;74.50;;;;;;5068321;28;20471;-79
2023/11/02 08:23:52;;;;;;;0.82;0.38;;;18.00;74.50;;;;;;5049719;28;20564;-79
2023/11/02 08:26:20;;;;;;;0.93;0.43;;;18.00;74.50;;;;;;5067178;28;20123;-79
2023/11/02 08:28:51;;;;;;;0.70;0.50;;;18.00;74.60;;;;;;5063871;28;20060;-79
2023/11/02 08:31:24;;;;;;;0.57;0.40;;;18.00;74.40;;;;;;5048388;28;20063;-79
2023/11/02 08:33:50;;;;;;;0.35;0.30;;;18.00;74.50;;;;;;5065629;28;20029;-79
2023/11/02 08:36:16;;;;;;;1.80;0.40;;;18.00;74.50;;;;;;5067454;28;20083;-79
2023/11/02 08:38:42;;;;;;;1.33;0.73;;;18.00;74.40;;;;;;5032040;28;20048;-78
2023/11/02 08:41:19;;;;;;;1.00;0.40;;;17.90;74.40;;;;;;5045779;28;20402;-79
2023/11/02 08:43:47;;;;;;;0.60;0.30;;;17.90;74.60;;;;;;5062505;28;20029;-79
2023/11/02 08:46:16;;;;;;;1.00;0.30;;;17.90;74.70;;;;;;5065142;28;20040;-79
2023/11/02 08:48:46;;;;;;;0.40;0.35;;;17.90;74.60;;;;;;5056270;28;20028;-79
2023/11/02 08:51:14;;;;;;;1.00;0.30;;;17.90;74.70;;;;;;5072654;28;20692;-79
2023/11/02 08:53:40;;;;;;;0.57;0.25;;;17.90;74.60;;;;;;5047068;28;20065;-79
2023/11/02 08:56:09;;;;;;;0.80;0.40;;;17.90;74.50;;;;;;5057516;28;20041;-79
2023/11/02 08:58:42;;;;;;;0.57;0.40;;;17.90;74.40;;;;;;5056042;28;20158;-79
2023/11/02 09:01:08;;;;;;;0.52;0.22;;;17.90;74.50;;;;;;5044711;28;20047;-79
2023/11/02 09:03:36;;;;;;;0.17;0.17;;;18.00;74.30;;;;;;5047953;28;20041;-81
2023/11/02 09:06:04;;;;;;;0.25;0.20;;;18.00;74.10;;;;;;5064213;28;20084;-79
2023/11/02 09:08:29;;;;;;;0.45;0.22;;;18.00;74.10;;;;;;5063880;28;20147;-79
2023/11/02 09:10:55;;;;;;;1.50;0.20;;;18.00;74.10;;;;;;5066625;28;20123;-79
2023/11/02 09:13:21;;;;;;;0.85;0.40;;;18.00;73.90;;;;;;5047503;28;20061;-80
2023/11/02 09:15:46;;;;;;;0.45;0.22;;;18.00;73.90;;;;;;5062457;28;20028;-79
2023/11/02 09:18:12;;;;;;;0.50;0.30;;;18.00;74.00;;;;;;5066605;28;20472;-79
2023/11/02 09:20:37;;;;;;;0.28;0.20;;;18.00;74.00;;;;;;5059253;28;20048;-79
2023/11/02 09:23:03;;;;;;;0.43;0.30;;;18.00;74.80;;;;;;5061336;28;20143;-79
2023/11/02 09:25:28;;;;;;;0.65;0.40;;;18.00;73.90;;;;;;5064306;28;20036;-77
2023/11/02 09:27:54;;;;;;;0.70;0.20;;;18.00;73.80;;;;;;5064919;28;20086;-78
2023/11/02 09:30:20;;;;;;;0.50;0.30;;;18.00;74.00;;;;;;5063027;28;20056;-79
2023/11/02 09:32:46;;;;;;;0.43;0.20;;;18.00;74.00;;;;;;5060322;28;20060;-78
2023/11/02 09:35:11;;;;;;;0.43;0.30;;;18.00;73.90;;;;;;5063159;28;20093;-80
2023/11/02 09:37:37;;;;;;;0.40;0.40;;;18.00;73.90;;;;;;5063975;28;20137;-78
2023/11/02 09:40:06;;;;;;;0.38;0.20;;;18.00;73.90;;;;;;5061900;28;20107;-80
2023/11/02 09:42:32;;;;;;;1.20;0.40;;;18.00;73.80;;;;;;5065730;28;20053;-78
2023/11/02 09:44:58;;;;;;;0.32;0.20;;;18.00;74.20;;;;;;5061472;28;20048;-79
2023/11/02 09:47:24;;;;;;;0.70;0.28;;;18.00;74.00;;;;;;5029389;28;20076;-78
2023/11/02 09:49:49;;;;;;;0.60;0.25;;;18.00;74.10;;;;;;5043123;28;20094;-78
2023/11/02 09:52:15;;;;;;;0.40;0.28;;;18.00;74.00;;;;;;5048204;28;20534;-78
2023/11/02 09:54:41;;;;;;;0.47;0.35;;;18.00;73.90;;;;;;5094440;28;20033;-78
2023/11/02 09:57:06;;;;;;;0.43;0.32;;;18.10;74.00;;;;;;5063082;28;20049;-78
2023/11/02 09:59:33;;;;;;;0.38;0.32;;;18.10;74.20;;;;;;5043389;28;20032;-78
2023/11/02 10:01:58;;;;;;;0.43;0.30;;;18.00;74.30;;;;;;5071831;28;20048;-78
2023/11/02 10:04:24;;;;;;;0.50;0.30;;;18.10;74.30;;;;;;5061090;28;20068;-78
2023/11/02 10:06:49;;;;;;;0.68;0.40;;;18.10;74.20;;;;;;5061112;28;20028;-78
2023/11/02 10:09:15;;;;;;;0.30;0.20;;;18.10;74.20;;;;;;5077558;28;20060;-77
2023/11/02 10:11:41;;;;;;;0.40;0.28;;;18.10;74.20;;;;;;5046057;28;20036;-77
2023/11/02 10:14:06;;;;;;;0.70;0.40;;;18.10;74.20;;;;;;5059066;28;20036;-78
2023/11/02 10:16:32;;;;;;;0.47;0.30;;;18.10;74.20;;;;;;5061484;28;20735;-78
2023/11/02 10:18:57;;;;;;;0.50;0.20;;;18.10;74.30;;;;;;5059712;28;20043;-78
2023/11/02 10:21:23;;;;;;;0.88;0.32;;;18.10;74.30;;;;;;5092567;28;20371;-78
2023/11/02 10:23:57;;;;;;;0.30;0.22;;;18.10;74.30;;;;;;5090956;28;20040;-77
2023/11/02 10:26:24;;;;;;;;;;;18.10;74.20;;;;;;5060204;28;20123;-77
2023/11/02 10:28:53;;;;;;;0.20;0.20;;;18.10;74.20;;;;;;5058957;28;19920;-78
2023/11/02 10:31:23;;;;;;;0.52;0.40;;;18.10;74.10;;;;;;5043257;28;20486;-77
2023/11/02 10:33:49;;;;;;;0.40;0.30;;;18.10;74.20;;;;;;5060930;28;20033;-78
2023/11/02 10:36:16;;;;;;;0.63;0.30;;;18.10;74.30;;;;;;5059802;28;20037;-78
2023/11/02 10:38:46;;;;;;;0.17;0.17;;;18.10;74.20;;;;;;5059281;28;20063;-78
2023/11/02 10:41:16;;;;;;;0.30;0.20;;;18.10;74.20;;;;;;5044700;28;20060;-77
2023/11/02 10:43:43;;;;;;;0.70;0.50;;;18.10;74.20;;;;;;5094054;28;20033;-79
2023/11/02 10:46:11;;;;;;;0.50;0.40;;;18.10;74.20;;;;;;5053393;28;20051;-78
2023/11/02 10:48:37;;;;;;;0.75;0.20;;;18.10;75.00;;;;;;5061429;28;20573;-79
2023/11/02 10:51:03;;;;;;;0.30;0.22;;;18.10;74.20;;;;;;5057738;28;20525;-79
2023/11/02 10:53:51;;;;;;;0.32;0.20;;;18.10;74.20;;;;;;5060007;28;20111;-78
2023/11/02 10:56:24;;;;;;;0.45;0.20;;;18.10;74.20;;;;;;5052958;28;20101;-79
2023/11/02 10:58:50;;;;;;;0.93;0.25;;;18.10;74.10;;;;;;5043501;28;20123;-78
2023/11/02 11:01:17;;;;;;;0.25;0.25;;;18.10;74.90;;;;;;5054108;28;20125;-79
2023/11/02 11:03:44;;;;;;;0.30;0.20;;;18.10;74.10;;;;;;5076560;28;20037;-79
2023/11/02 11:06:11;;;;;;;0.55;0.30;;;18.10;74.20;;;;;;5045138;28;20040;-79
2023/11/02 11:08:37;;;;;;;0.50;0.20;;;18.10;74.10;;;;;;5059842;28;20040;-80
2023/11/02 11:11:04;;;;;;;0.47;0.30;;;18.20;74.10;;;;;;5060912;28;20056;-80
2023/11/02 11:13:30;;;;;;;0.65;0.60;;;18.20;74.10;;;;;;5063064;28;20498;-78
2023/11/02 11:15:56;;;;;;;1.00;0.40;;;18.20;74.00;;;;;;5074779;28;20036;-77
2023/11/02 11:18:21;;;;;;;0.40;0.40;;;18.30;74.00;;;;;;5056270;28;20037;-77
2023/11/02 11:20:47;;;;;;;2.00;0.25;;;18.30;74.00;;;;;;5057081;28;20111;-77
2023/11/02 11:23:14;;;;;;;0.30;0.30;;;18.30;74.10;;;;;;5041515;28;20430;-75
2023/11/02 11:25:58;;;;;;;1.45;0.40;;;18.30;74.00;;;;;;5059578;28;20025;-76
2023/11/02 11:28:30;;;;;;;0.65;0.30;;;18.40;74.20;;;;;;5058894;28;20045;-76
2023/11/02 11:30:58;;;;;;;0.38;0.30;;;18.40;74.10;;;;;;5060453;28;20128;-77
2023/11/02 11:33:49;;;;;;;1.60;0.25;;;18.40;74.30;;;;;;5060629;28;20182;-78
2023/11/02 11:36:24;;;;;;;1.50;0.50;;;18.40;74.40;;;;;;5062081;28;20040;-79
2023/11/02 11:38:50;;;;;;;0.30;0.30;;;18.50;74.30;;;;;;5089497;28;20062;-79
2023/11/02 11:41:44;;;;;;;0.50;0.30;;;18.50;74.50;;;;;;5061379;28;20526;-78
2023/11/02 11:44:20;;;;;;;0.23;0.23;;;18.50;75.00;;;;;;5052804;28;20055;-79
2023/11/02 11:46:49;;;;;;;2.17;0.43;;;18.50;74.80;;;;;;5049471;28;20036;-81
2023/11/02 11:49:41;;;;;;;1.83;0.38;;;18.50;75.50;;;;;;5080480;28;20300;-78
2023/11/02 11:52:19;;;;;;;2.35;0.60;;;18.60;76.30;;;;;;5062977;28;20060;-77
2023/11/02 11:54:44;;;;;;;1.02;0.35;;;18.60;75.90;;;;;;5093818;27;20052;-78
2023/11/02 11:57:10;;;;;;;0.85;0.32;;;18.70;75.30;;;;;;5049294;28;20527;-78
2023/11/02 11:59:54;;;;;;;1.50;0.40;;;18.70;75.10;;;;;;5049684;28;20519;-77
2023/11/02 12:02:36;;;;;;;0.82;0.40;;;18.70;75.50;;;;;;4701395;28;10000203;-76
2023/11/02 12:05:02;;;;;;;2.00;0.55;;;18.80;75.20;;;;;;5060400;28;20242;-76
2023/11/02 12:07:27;;;;;;;0.63;0.30;;;18.80;75.10;;;;;;5061725;28;20177;-77
2023/11/02 12:09:53;;;;;;;1.10;0.45;;;18.70;74.50;;;;;;5060176;28;20537;-77
2023/11/02 12:12:18;;;;;;;0.50;0.35;;;18.70;74.10;;;;;;5061307;28;20033;-79
2023/11/02 12:14:44;;;;;;;0.28;0.20;;;18.70;73.80;;;;;;5040757;28;20039;-78
2023/11/02 12:17:11;;;;;;;0.52;0.52;;;18.70;73.70;;;;;;5056555;28;20045;-78
2023/11/02 12:19:45;;;;;;;0.30;0.30;;;18.70;73.80;;;;;;5075134;28;20146;-78
2023/11/02 12:22:10;;;;;;;0.30;0.20;;;18.70;73.80;;;;;;5064402;28;20052;-78
2023/11/02 12:24:38;;;;;;;1.42;0.45;;;18.70;73.80;;;;;;5046461;28;20417;-78
2023/11/02 12:27:22;;;;;;;0.25;0.22;;;18.70;73.70;;;;;;5072516;28;20501;-78
2023/11/02 12:29:57;;;;;;;0.80;0.30;;;18.70;73.50;;;;;;5038735;28;20051;-80
2023/11/02 12:32:23;;;;;;;0.40;0.32;;;18.70;73.80;;;;;;5047931;28;20037;-80
2023/11/02 12:34:49;;;;;;;0.52;0.30;;;18.70;74.00;;;;;;5045648;28;20021;-81
2023/11/02 12:37:15;;;;;;;0.40;0.40;;;18.70;74.00;;;;;;5061318;28;20048;-79
2023/11/02 12:39:56;;;;;;;0.82;0.50;;;18.70;74.00;;;;;;5062346;28;20029;-80
2023/11/02 12:42:21;;;;;;;0.82;0.40;;;18.70;74.00;;;;;;5047041;28;20040;-81
2023/11/02 12:44:47;;;;;;;0.70;0.40;;;18.60;73.90;;;;;;5053654;28;20037;-80
2023/11/02 12:47:13;;;;;;;0.77;0.60;;;18.60;73.90;;;;;;5068747;28;21039;-78
2023/11/02 12:49:38;;;;;;;0.65;0.50;;;18.60;73.80;;;;;;5061948;28;20036;-81
2023/11/02 12:52:09;;;;;;;0.80;0.43;;;18.70;73.50;;;;;;5067508;28;20033;-83
2023/11/02 12:54:36;;;;;;;0.40;0.40;;;18.70;73.70;;;;;;5062509;28;20048;-83
2023/11/02 12:57:09;;;;;;;0.43;0.30;;;18.70;73.80;;;;;;5048367;28;20056;-85
2023/11/02 12:59:42;;;;;;;1.15;0.30;;;18.60;73.80;;;;;;5058143;28;20661;-82